createdAt,value
2019-02-20T00:02:04.653Z,23.31
2019-02-20T00:12:10.546Z,23.25
2019-02-20T00:22:16.518Z,23.44
2019-02-20T00:32:22.417Z,23.31
2019-02-20T00:42:29.134Z,23.44
2019-02-20T00:52:36.699Z,23.38
2019-02-20T01:02:42.702Z,23.25
2019-02-20T01:12:48.643Z,23.44
2019-02-20T01:22:59.817Z,23.31
2019-02-20T01:33:01.915Z,23.25
2019-02-20T01:43:07.657Z,23.25
2019-02-20T01:53:13.474Z,23.12
2019-02-20T02:03:19.414Z,23.25
2019-02-20T02:13:25.211Z,23.31
2019-02-20T02:23:31.074Z,23.25
2019-02-20T02:33:36.921Z,23.19
2019-02-20T02:43:42.679Z,23.25
2019-02-20T02:53:48.610Z,23.06
2019-02-20T03:03:54.459Z,23.25
2019-02-20T03:14:00.284Z,23.12
2019-02-20T03:24:06.195Z,23.12
2019-02-20T03:34:12.033Z,23.19
2019-02-20T03:44:18.066Z,23.25
2019-02-20T03:54:24.100Z,23.25
2019-02-20T04:04:29.992Z,23.19
2019-02-20T04:14:35.890Z,23.31
2019-02-20T04:24:41.747Z,23.00
2019-02-20T04:34:47.643Z,23.25
2019-02-20T04:44:53.544Z,23.06
2019-02-20T04:54:59.633Z,23.12
2019-02-20T05:05:05.546Z,23.06
2019-02-20T05:15:11.472Z,23.12
2019-02-20T05:25:17.269Z,23.00
2019-02-20T05:35:23.250Z,23.00
2019-02-20T05:45:28.993Z,23.12
2019-02-20T05:55:34.898Z,23.06
2019-02-20T06:05:40.574Z,23.12
2019-02-20T06:15:45.617Z,23.12
2019-02-20T06:25:51.370Z,23.06
2019-02-20T06:35:57.154Z,23.12
2019-02-20T06:46:03.009Z,23.19
2019-02-20T06:56:08.802Z,23.19
2019-02-20T07:06:34.827Z,23.12
2019-02-20T07:17:03.275Z,23.12
2019-02-20T07:27:31.316Z,23.06
2019-02-20T07:37:37.210Z,23.06
2019-02-20T07:47:43.140Z,23.12
2019-02-20T07:57:49.298Z,23.19
2019-02-20T08:07:55.132Z,23.12
2019-02-20T08:18:01.025Z,23.25
2019-02-20T08:28:07.031Z,23.50
2019-02-20T08:38:12.947Z,23.50
2019-02-20T08:48:18.874Z,23.56
2019-02-20T08:58:24.855Z,23.62
2019-02-20T09:08:30.783Z,23.50
2019-02-20T09:18:36.678Z,23.69
2019-02-20T09:28:42.614Z,23.62
2019-02-20T09:38:48.603Z,23.87
2019-02-20T09:48:54.478Z,23.56
2019-02-20T09:59:00.327Z,23.62
2019-02-20T10:09:07.182Z,23.69
2019-02-20T10:19:13.112Z,23.75
2019-02-20T10:29:18.986Z,23.81
2019-02-20T10:39:24.798Z,23.69
2019-02-20T10:49:29.753Z,23.75
2019-02-20T10:59:35.498Z,24.19
2019-02-20T11:09:42.312Z,24.56
2019-02-20T11:19:48.139Z,24.06
2019-02-20T11:29:54.075Z,23.94
2019-02-20T11:40:00.026Z,24.00
2019-02-20T11:50:08.839Z,23.87
2019-02-20T12:00:19.051Z,23.87
2019-02-20T12:10:24.920Z,23.81
2019-02-20T12:20:30.809Z,23.87
2019-02-20T12:30:38.029Z,23.94
2019-02-20T12:40:43.307Z,23.75
2019-02-20T12:50:49.111Z,23.87
2019-02-20T13:00:55.038Z,24.31
2019-02-20T13:11:00.884Z,24.37
2019-02-20T13:21:06.715Z,24.25
2019-02-20T13:31:12.619Z,24.06
2019-02-20T13:41:17.634Z,23.87
2019-02-20T13:51:23.417Z,23.94
2019-02-20T14:01:29.599Z,24.37
2019-02-20T14:11:35.505Z,24.31
2019-02-20T14:21:41.329Z,24.19
2019-02-20T14:31:47.264Z,24.00
2019-02-20T14:41:53.193Z,24.00
2019-02-20T14:51:59.052Z,24.06
2019-02-20T15:02:04.991Z,24.06
2019-02-20T15:12:10.122Z,24.19
2019-02-20T15:22:15.893Z,24.12
2019-02-20T15:32:21.734Z,23.87
2019-02-20T15:42:27.649Z,23.94
2019-02-20T15:52:33.478Z,24.00
2019-02-20T16:02:39.260Z,24.06
2019-02-20T16:12:45.138Z,24.06
2019-02-20T16:22:51.015Z,23.81
2019-02-20T16:32:56.878Z,23.94
2019-02-20T16:43:03.871Z,23.94
2019-02-20T16:53:10.047Z,23.94
2019-02-20T17:03:16.079Z,23.87
2019-02-20T17:13:21.909Z,23.87
2019-02-20T17:23:27.916Z,23.75
2019-02-20T17:33:33.962Z,24.00
2019-02-20T17:43:39.929Z,23.94
2019-02-20T17:53:45.932Z,23.81
2019-02-20T18:03:52.359Z,23.75
2019-02-20T18:13:58.283Z,23.81
2019-02-20T18:24:04.144Z,23.87
2019-02-20T18:34:10.137Z,23.75
2019-02-20T18:44:16.118Z,23.81
2019-02-20T18:54:22.121Z,23.87
2019-02-20T19:04:28.037Z,23.94
2019-02-20T19:15:10.246Z,24.00
2019-02-20T19:25:39.017Z,24.06
2019-02-20T19:36:20.782Z,23.81
2019-02-20T19:46:45.131Z,23.75
2019-02-20T19:57:07.763Z,23.87
2019-02-20T20:07:52.716Z,23.81
2019-02-20T20:18:15.889Z,23.62
2019-02-20T20:28:28.981Z,23.87
2019-02-20T20:39:13.475Z,23.81
2019-02-20T20:49:39.131Z,23.75
2019-02-20T21:00:24.891Z,23.75
2019-02-20T21:11:11.662Z,23.81
2019-02-20T21:21:34.049Z,23.62
2019-02-20T21:32:13.465Z,23.50
2019-02-20T21:42:38.882Z,23.44
2019-02-20T21:53:13.553Z,23.56
2019-02-20T22:04:03.380Z,23.44
2019-02-20T22:14:23.769Z,23.44
2019-02-20T22:24:53.320Z,23.38
2019-02-20T22:35:39.808Z,23.50
2019-02-20T22:45:50.140Z,23.38
2019-02-20T22:56:30.144Z,23.38
2019-02-20T23:06:49.117Z,23.31
2019-02-20T23:16:54.953Z,23.38
2019-02-20T23:27:01.846Z,23.44
2019-02-20T23:37:07.851Z,23.44
2019-02-20T23:47:13.715Z,23.38
2019-02-20T23:57:19.578Z,23.44
